sensor_id;sensor_type;location;lat;lon;timestamp;P1;durP1;ratioP1;P2;durP2;ratioP2
32329;SDS011;18807;52.434;13.238;2023-03-01T00:00:26;11.25;;;5.22;;
32329;SDS011;18807;52.434;13.238;2023-03-01T00:08:02;10.52;;;5.20;;
32329;SDS011;18807;52.434;13.238;2023-03-01T00:15:37;11.18;;;5.70;;
32329;SDS011;18807;52.434;13.238;2023-03-01T00:23:14;14.30;;;6.88;;
32329;SDS011;18807;52.434;13.238;2023-03-01T00:30:48;14.57;;;6.00;;
32329;SDS011;18807;52.434;13.238;2023-03-01T00:38:24;15.65;;;6.28;;
32329;SDS011;18807;52.434;13.238;2023-03-01T00:46:00;10.75;;;5.88;;
32329;SDS011;18807;52.434;13.238;2023-03-01T00:53:35;12.90;;;6.68;;
32329;SDS011;18807;52.434;13.238;2023-03-01T01:01:11;7.95;;;4.93;;
32329;SDS011;18807;52.434;13.238;2023-03-01T01:08:52;11.73;;;5.35;;
32329;SDS011;18807;52.434;13.238;2023-03-01T01:16:28;11.35;;;6.00;;
32329;SDS011;18807;52.434;13.238;2023-03-01T01:24:04;10.75;;;6.03;;
32329;SDS011;18807;52.434;13.238;2023-03-01T01:31:39;7.90;;;5.07;;
32329;SDS011;18807;52.434;13.238;2023-03-01T01:39:16;16.13;;;6.43;;
32329;SDS011;18807;52.434;13.238;2023-03-01T01:46:51;10.90;;;5.78;;
32329;SDS011;18807;52.434;13.238;2023-03-01T01:54:29;10.73;;;6.20;;
32329;SDS011;18807;52.434;13.238;2023-03-01T02:02:10;12.82;;;6.22;;
32329;SDS011;18807;52.434;13.238;2023-03-01T02:09:47;10.10;;;5.63;;
32329;SDS011;18807;52.434;13.238;2023-03-01T02:17:22;11.38;;;5.80;;
32329;SDS011;18807;52.434;13.238;2023-03-01T02:33:21;10.88;;;6.18;;
32329;SDS011;18807;52.434;13.238;2023-03-01T02:40:55;13.85;;;6.95;;
32329;SDS011;18807;52.434;13.238;2023-03-01T02:48:40;11.75;;;6.57;;
32329;SDS011;18807;52.434;13.238;2023-03-01T02:56:15;13.63;;;6.70;;
32329;SDS011;18807;52.434;13.238;2023-03-01T03:03:51;15.40;;;7.22;;
32329;SDS011;18807;52.434;13.238;2023-03-01T03:11:25;12.75;;;6.28;;
32329;SDS011;18807;52.434;13.238;2023-03-01T03:19:01;9.07;;;5.72;;
32329;SDS011;18807;52.434;13.238;2023-03-01T03:26:37;11.13;;;5.75;;
32329;SDS011;18807;52.434;13.238;2023-03-01T03:34:12;11.23;;;5.68;;
32329;SDS011;18807;52.434;13.238;2023-03-01T03:41:50;12.48;;;6.38;;
32329;SDS011;18807;52.434;13.238;2023-03-01T03:49:25;13.25;;;5.88;;
32329;SDS011;18807;52.434;13.238;2023-03-01T03:56:59;13.13;;;6.90;;
32329;SDS011;18807;52.434;13.238;2023-03-01T04:04:34;15.00;;;6.95;;
32329;SDS011;18807;52.434;13.238;2023-03-01T04:12:08;11.00;;;6.88;;
32329;SDS011;18807;52.434;13.238;2023-03-01T04:19:43;11.75;;;5.60;;
32329;SDS011;18807;52.434;13.238;2023-03-01T04:27:21;13.18;;;6.03;;
32329;SDS011;18807;52.434;13.238;2023-03-01T04:34:56;10.40;;;6.25;;
32329;SDS011;18807;52.434;13.238;2023-03-01T04:42:30;15.50;;;7.00;;
32329;SDS011;18807;52.434;13.238;2023-03-01T04:50:07;11.88;;;6.32;;
32329;SDS011;18807;52.434;13.238;2023-03-01T04:57:42;8.82;;;5.55;;
32329;SDS011;18807;52.434;13.238;2023-03-01T05:05:18;10.75;;;6.00;;
32329;SDS011;18807;52.434;13.238;2023-03-01T05:12:54;12.63;;;6.63;;
32329;SDS011;18807;52.434;13.238;2023-03-01T05:20:31;13.57;;;6.68;;
32329;SDS011;18807;52.434;13.238;2023-03-01T05:28:09;12.52;;;5.90;;
32329;SDS011;18807;52.434;13.238;2023-03-01T05:35:46;13.32;;;6.55;;
32329;SDS011;18807;52.434;13.238;2023-03-01T05:43:20;12.70;;;6.18;;
32329;SDS011;18807;52.434;13.238;2023-03-01T05:50:58;9.85;;;5.13;;
32329;SDS011;18807;52.434;13.238;2023-03-01T05:58:51;14.50;;;7.00;;
32329;SDS011;18807;52.434;13.238;2023-03-01T06:06:26;13.23;;;7.03;;
32329;SDS011;18807;52.434;13.238;2023-03-01T06:14:00;12.85;;;6.95;;
32329;SDS011;18807;52.434;13.238;2023-03-01T06:21:36;10.48;;;5.97;;
32329;SDS011;18807;52.434;13.238;2023-03-01T06:29:10;12.57;;;5.85;;
32329;SDS011;18807;52.434;13.238;2023-03-01T06:36:46;13.95;;;7.97;;
32329;SDS011;18807;52.434;13.238;2023-03-01T06:44:19;12.05;;;6.45;;
32329;SDS011;18807;52.434;13.238;2023-03-01T06:51:55;10.57;;;6.85;;
32329;SDS011;18807;52.434;13.238;2023-03-01T06:59:30;16.30;;;7.97;;
32329;SDS011;18807;52.434;13.238;2023-03-01T07:07:05;14.65;;;7.75;;
32329;SDS011;18807;52.434;13.238;2023-03-01T07:14:39;16.63;;;8.93;;
32329;SDS011;18807;52.434;13.238;2023-03-01T07:22:14;18.90;;;8.85;;
32329;SDS011;18807;52.434;13.238;2023-03-01T07:29:48;15.35;;;8.68;;
32329;SDS011;18807;52.434;13.238;2023-03-01T07:44:57;21.77;;;11.95;;
32329;SDS011;18807;52.434;13.238;2023-03-01T08:00:07;24.30;;;12.40;;
32329;SDS011;18807;52.434;13.238;2023-03-01T08:07:45;22.02;;;11.13;;
32329;SDS011;18807;52.434;13.238;2023-03-01T08:15:18;19.38;;;10.70;;
32329;SDS011;18807;52.434;13.238;2023-03-01T08:23:11;23.20;;;10.63;;
32329;SDS011;18807;52.434;13.238;2023-03-01T08:30:45;20.13;;;9.77;;
32329;SDS011;18807;52.434;13.238;2023-03-01T08:38:21;16.00;;;8.18;;
32329;SDS011;18807;52.434;13.238;2023-03-01T08:45:55;13.82;;;7.43;;
32329;SDS011;18807;52.434;13.238;2023-03-01T08:53:31;13.13;;;7.47;;
32329;SDS011;18807;52.434;13.238;2023-03-01T09:01:06;11.30;;;6.53;;
32329;SDS011;18807;52.434;13.238;2023-03-01T09:08:43;10.30;;;5.60;;
32329;SDS011;18807;52.434;13.238;2023-03-01T09:16:19;10.38;;;4.90;;
32329;SDS011;18807;52.434;13.238;2023-03-01T09:23:56;8.05;;;5.22;;
32329;SDS011;18807;52.434;13.238;2023-03-01T09:31:48;9.10;;;5.43;;
32329;SDS011;18807;52.434;13.238;2023-03-01T09:39:24;6.88;;;3.78;;
32329;SDS011;18807;52.434;13.238;2023-03-01T09:46:58;9.30;;;5.10;;
32329;SDS011;18807;52.434;13.238;2023-03-01T09:54:35;6.75;;;4.35;;
32329;SDS011;18807;52.434;13.238;2023-03-01T10:02:14;8.95;;;4.25;;
32329;SDS011;18807;52.434;13.238;2023-03-01T10:09:58;5.57;;;3.05;;
32329;SDS011;18807;52.434;13.238;2023-03-01T10:17:36;5.50;;;3.05;;
32329;SDS011;18807;52.434;13.238;2023-03-01T10:25:17;8.35;;;3.22;;
32329;SDS011;18807;52.434;13.238;2023-03-01T10:33:00;6.85;;;2.72;;
32329;SDS011;18807;52.434;13.238;2023-03-01T10:48:24;6.70;;;3.70;;
32329;SDS011;18807;52.434;13.238;2023-03-01T10:56:02;6.85;;;3.65;;
32329;SDS011;18807;52.434;13.238;2023-03-01T11:03:38;7.25;;;3.60;;
32329;SDS011;18807;52.434;13.238;2023-03-01T11:11:29;5.20;;;3.27;;
32329;SDS011;18807;52.434;13.238;2023-03-01T11:19:16;9.88;;;4.65;;
32329;SDS011;18807;52.434;13.238;2023-03-01T11:26:54;8.10;;;4.18;;
32329;SDS011;18807;52.434;13.238;2023-03-01T11:42:25;7.05;;;3.58;;
32329;SDS011;18807;52.434;13.238;2023-03-01T11:50:12;7.18;;;3.58;;
32329;SDS011;18807;52.434;13.238;2023-03-01T11:58:25;5.35;;;3.17;;
32329;SDS011;18807;52.434;13.238;2023-03-01T12:06:10;4.00;;;2.53;;
32329;SDS011;18807;52.434;13.238;2023-03-01T12:14:01;6.28;;;2.97;;
32329;SDS011;18807;52.434;13.238;2023-03-01T12:21:58;8.57;;;3.58;;
32329;SDS011;18807;52.434;13.238;2023-03-01T12:29:45;6.70;;;3.72;;
32329;SDS011;18807;52.434;13.238;2023-03-01T12:37:29;7.50;;;3.22;;
32329;SDS011;18807;52.434;13.238;2023-03-01T12:45:21;9.98;;;4.00;;
32329;SDS011;18807;52.434;13.238;2023-03-01T12:53:13;7.10;;;3.92;;
32329;SDS011;18807;52.434;13.238;2023-03-01T13:01:16;7.47;;;3.92;;
32329;SDS011;18807;52.434;13.238;2023-03-01T13:08:57;6.60;;;3.67;;
32329;SDS011;18807;52.434;13.238;2023-03-01T13:16:40;5.53;;;3.17;;
32329;SDS011;18807;52.434;13.238;2023-03-01T13:24:23;6.47;;;3.47;;
32329;SDS011;18807;52.434;13.238;2023-03-01T13:32:00;5.20;;;3.45;;
32329;SDS011;18807;52.434;13.238;2023-03-01T13:39:38;6.95;;;3.42;;
32329;SDS011;18807;52.434;13.238;2023-03-01T13:47:15;5.32;;;2.83;;
32329;SDS011;18807;52.434;13.238;2023-03-01T13:54:51;4.88;;;3.08;;
32329;SDS011;18807;52.434;13.238;2023-03-01T14:02:29;8.32;;;3.83;;
32329;SDS011;18807;52.434;13.238;2023-03-01T14:10:04;6.00;;;3.95;;
32329;SDS011;18807;52.434;13.238;2023-03-01T14:18:00;4.82;;;2.65;;
32329;SDS011;18807;52.434;13.238;2023-03-01T14:25:46;4.28;;;2.83;;
32329;SDS011;18807;52.434;13.238;2023-03-01T14:33:24;4.97;;;3.20;;
32329;SDS011;18807;52.434;13.238;2023-03-01T14:41:00;4.80;;;3.30;;
32329;SDS011;18807;52.434;13.238;2023-03-01T14:48:40;5.15;;;2.63;;
32329;SDS011;18807;52.434;13.238;2023-03-01T14:56:15;6.97;;;3.28;;
32329;SDS011;18807;52.434;13.238;2023-03-01T15:03:52;4.82;;;2.38;;
32329;SDS011;18807;52.434;13.238;2023-03-01T15:11:28;3.97;;;1.98;;
32329;SDS011;18807;52.434;13.238;2023-03-01T15:19:05;6.05;;;2.85;;
32329;SDS011;18807;52.434;13.238;2023-03-01T15:26:41;4.03;;;1.98;;
32329;SDS011;18807;52.434;13.238;2023-03-01T15:34:24;3.42;;;1.95;;
32329;SDS011;18807;52.434;13.238;2023-03-01T15:41:59;3.88;;;2.25;;
32329;SDS011;18807;52.434;13.238;2023-03-01T15:49:38;5.40;;;1.75;;
32329;SDS011;18807;52.434;13.238;2023-03-01T15:57:26;3.17;;;1.42;;
32329;SDS011;18807;52.434;13.238;2023-03-01T16:05:02;4.63;;;1.70;;
32329;SDS011;18807;52.434;13.238;2023-03-01T16:12:36;3.67;;;1.70;;
32329;SDS011;18807;52.434;13.238;2023-03-01T16:20:13;2.45;;;1.70;;
32329;SDS011;18807;52.434;13.238;2023-03-01T16:28:05;4.07;;;2.20;;
32329;SDS011;18807;52.434;13.238;2023-03-01T16:36:01;3.83;;;1.98;;
32329;SDS011;18807;52.434;13.238;2023-03-01T16:43:35;5.03;;;2.58;;
32329;SDS011;18807;52.434;13.238;2023-03-01T16:51:10;7.18;;;2.25;;
32329;SDS011;18807;52.434;13.238;2023-03-01T16:58:44;8.10;;;3.20;;
32329;SDS011;18807;52.434;13.238;2023-03-01T17:06:20;5.23;;;2.40;;
32329;SDS011;18807;52.434;13.238;2023-03-01T17:13:57;6.57;;;3.08;;
32329;SDS011;18807;52.434;13.238;2023-03-01T17:21:32;5.03;;;2.60;;
32329;SDS011;18807;52.434;13.238;2023-03-01T17:29:06;4.78;;;2.90;;
32329;SDS011;18807;52.434;13.238;2023-03-01T17:36:42;8.35;;;3.35;;
32329;SDS011;18807;52.434;13.238;2023-03-01T17:44:18;8.15;;;2.80;;
32329;SDS011;18807;52.434;13.238;2023-03-01T17:51:53;8.03;;;4.63;;
32329;SDS011;18807;52.434;13.238;2023-03-01T17:59:27;5.20;;;2.60;;
32329;SDS011;18807;52.434;13.238;2023-03-01T18:07:05;4.70;;;2.72;;
32329;SDS011;18807;52.434;13.238;2023-03-01T18:14:39;5.00;;;2.72;;
32329;SDS011;18807;52.434;13.238;2023-03-01T18:22:32;4.65;;;2.78;;
32329;SDS011;18807;52.434;13.238;2023-03-01T18:30:06;11.75;;;3.28;;
32329;SDS011;18807;52.434;13.238;2023-03-01T18:37:46;7.70;;;4.43;;
32329;SDS011;18807;52.434;13.238;2023-03-01T18:45:21;7.22;;;4.40;;
32329;SDS011;18807;52.434;13.238;2023-03-01T18:52:56;10.77;;;5.75;;
32329;SDS011;18807;52.434;13.238;2023-03-01T19:00:31;10.68;;;4.95;;
32329;SDS011;18807;52.434;13.238;2023-03-01T19:08:07;9.02;;;4.88;;
32329;SDS011;18807;52.434;13.238;2023-03-01T19:15:41;12.80;;;6.78;;
32329;SDS011;18807;52.434;13.238;2023-03-01T19:23:16;12.88;;;6.95;;
32329;SDS011;18807;52.434;13.238;2023-03-01T19:30:50;9.70;;;4.95;;
32329;SDS011;18807;52.434;13.238;2023-03-01T19:38:26;8.30;;;3.95;;
32329;SDS011;18807;52.434;13.238;2023-03-01T19:46:00;8.77;;;4.28;;
32329;SDS011;18807;52.434;13.238;2023-03-01T19:53:53;10.27;;;4.43;;
32329;SDS011;18807;52.434;13.238;2023-03-01T20:01:27;8.68;;;4.38;;
32329;SDS011;18807;52.434;13.238;2023-03-01T20:09:03;6.90;;;2.97;;
32329;SDS011;18807;52.434;13.238;2023-03-01T20:16:52;6.68;;;3.03;;
32329;SDS011;18807;52.434;13.238;2023-03-01T20:24:27;4.70;;;2.93;;
32329;SDS011;18807;52.434;13.238;2023-03-01T20:32:03;6.28;;;3.42;;
32329;SDS011;18807;52.434;13.238;2023-03-01T20:39:38;6.32;;;3.53;;
32329;SDS011;18807;52.434;13.238;2023-03-01T20:47:14;5.32;;;2.88;;
32329;SDS011;18807;52.434;13.238;2023-03-01T21:02:23;8.45;;;4.10;;
32329;SDS011;18807;52.434;13.238;2023-03-01T21:09:58;8.05;;;4.50;;
32329;SDS011;18807;52.434;13.238;2023-03-01T21:17:32;8.68;;;4.07;;
32329;SDS011;18807;52.434;13.238;2023-03-01T21:25:08;7.97;;;4.18;;
32329;SDS011;18807;52.434;13.238;2023-03-01T21:32:43;6.75;;;3.42;;
32329;SDS011;18807;52.434;13.238;2023-03-01T21:40:18;5.45;;;3.55;;
32329;SDS011;18807;52.434;13.238;2023-03-01T21:47:52;6.25;;;4.05;;
32329;SDS011;18807;52.434;13.238;2023-03-01T21:55:27;8.52;;;4.63;;
32329;SDS011;18807;52.434;13.238;2023-03-01T22:03:02;5.15;;;3.30;;
32329;SDS011;18807;52.434;13.238;2023-03-01T22:10:39;6.28;;;3.97;;
32329;SDS011;18807;52.434;13.238;2023-03-01T22:18:14;6.70;;;3.60;;
32329;SDS011;18807;52.434;13.238;2023-03-01T22:25:50;5.07;;;3.33;;
32329;SDS011;18807;52.434;13.238;2023-03-01T22:33:24;4.85;;;3.42;;
32329;SDS011;18807;52.434;13.238;2023-03-01T22:41:00;5.68;;;3.33;;
32329;SDS011;18807;52.434;13.238;2023-03-01T22:48:35;8.13;;;3.53;;
32329;SDS011;18807;52.434;13.238;2023-03-01T23:03:47;7.10;;;3.40;;
32329;SDS011;18807;52.434;13.238;2023-03-01T23:11:23;7.07;;;3.33;;
32329;SDS011;18807;52.434;13.238;2023-03-01T23:18:58;6.43;;;2.97;;
32329;SDS011;18807;52.434;13.238;2023-03-01T23:26:33;6.18;;;3.58;;
32329;SDS011;18807;52.434;13.238;2023-03-01T23:34:25;5.25;;;2.88;;
32329;SDS011;18807;52.434;13.238;2023-03-01T23:42:01;4.78;;;2.95;;
32329;SDS011;18807;52.434;13.238;2023-03-01T23:49:35;7.80;;;3.85;;
